Time;durP1;ratioP1;P1;durP2;ratioP2;P2;SDS_P1;SDS_P2;PMS_P1;PMS_P2;Temp;Humidity;BMP_temperature;BMP_pressure;BME280_temperature;BME280_humidity;BME280_pressure;Samples;Min_cycle;Max_cycle;Signal;HPM_P1;HPM_P2
2021/08/19 00:01:15;;;;;;;3.75;1.90;;;;;;;18.40;73.69;100343.47;4914045;29;20120;-79
2021/08/19 00:03:43;;;;;;;1.90;1.80;;;;;;;18.38;73.66;100340.91;4914524;29;20068;-79
2021/08/19 00:06:09;;;;;;;2.60;1.95;;;;;;;18.39;73.78;100344.44;4895912;29;20045;-79
2021/08/19 00:08:39;;;;;;;2.20;1.67;;;;;;;18.39;73.75;100347.13;4921679;29;20044;-79
2021/08/19 00:11:06;;;;;;;2.20;1.67;;;;;;;18.40;73.83;100346.16;4919509;29;20124;-78
2021/08/19 00:13:34;;;;;;;3.30;1.90;;;;;;;18.39;73.76;100347.13;4922856;29;20060;-79
2021/08/19 00:16:01;;;;;;;2.35;2.08;;;;;;;18.35;74.18;100349.19;4916417;29;20144;-79
2021/08/19 00:18:27;;;;;;;2.33;2.00;;;;;;;18.37;74.12;100343.69;4921765;29;20040;-78
2021/08/19 00:20:56;;;;;;;2.47;2.25;;;;;;;18.36;74.14;100347.34;4904852;29;20121;-79
2021/08/19 00:23:22;;;;;;;3.20;2.47;;;;;;;18.37;74.14;100347.25;4916823;29;20139;-79
2021/08/19 00:25:49;;;;;;;2.22;2.03;;;;;;;18.36;74.30;100342.84;4897634;29;20064;-79
2021/08/19 00:28:16;;;;;;;2.08;1.88;;;;;;;18.26;74.39;100324.94;4906366;29;20068;-78
2021/08/19 00:30:43;;;;;;;1.88;1.70;;;;;;;18.37;73.88;100339.19;4912441;29;20044;-78
2021/08/19 00:33:10;;;;;;;2.58;1.80;;;;;;;18.38;74.30;100334.69;4902470;29;20100;-78
2021/08/19 00:35:37;;;;;;;2.80;1.80;;;;;;;18.35;74.38;100335.78;4905840;29;20269;-78
2021/08/19 00:38:04;;;;;;;2.65;1.80;;;;;;;18.34;74.34;100333.22;4910289;29;20059;-78
2021/08/19 00:40:32;;;;;;;2.60;1.85;;;;;;;18.26;74.53;100327.63;4903434;29;20052;-78
2021/08/19 00:43:01;;;;;;;2.28;2.00;;;;;;;18.29;74.67;100330.91;4898822;29;20094;-78
2021/08/19 00:45:29;;;;;;;3.25;2.30;;;;;;;18.30;74.57;100323.72;4901601;29;20152;-78
2021/08/19 00:47:55;;;;;;;3.42;2.00;;;;;;;18.28;74.67;100318.47;4911856;29;20056;-79
2021/08/19 00:50:23;;;;;;;2.65;1.83;;;;;;;18.29;74.84;100314.81;4910236;29;20059;-79
2021/08/19 00:52:50;;;;;;;1.98;1.75;;;;;;;18.24;74.96;100306.31;4908496;29;20045;-79
2021/08/19 00:55:17;;;;;;;3.30;2.10;;;;;;;18.27;75.02;100311.41;4901888;29;20131;-79
2021/08/19 00:57:45;;;;;;;2.83;2.05;;;;;;;18.27;75.23;100311.41;4906782;29;20790;-79
2021/08/19 01:00:13;;;;;;;2.53;2.10;;;;;;;18.22;75.48;100308.25;4893876;29;20067;-79
2021/08/19 01:02:46;;;;;;;2.63;1.88;;;;;;;18.22;75.78;100303.75;4911822;29;20049;-79
2021/08/19 01:05:25;;;;;;;2.95;1.90;;;;;;;18.22;75.46;100308.25;4912668;29;20040;-79
2021/08/19 01:07:51;;;;;;;3.38;1.95;;;;;;;18.18;76.16;100301.44;4904041;29;20044;-79
2021/08/19 01:10:18;;;;;;;3.88;1.90;;;;;;;18.22;75.78;100310.94;4907138;29;20051;-79
2021/08/19 01:12:45;;;;;;;1.77;1.67;;;;;;;18.21;75.77;100303.88;4914352;29;20043;-79
2021/08/19 01:15:13;;;;;;;1.63;1.38;;;;;;;18.20;75.74;100300.34;4901070;29;20048;-79
2021/08/19 01:17:40;;;;;;;1.67;1.52;;;;;;;18.17;75.97;100299.72;4910939;29;20058;-79
2021/08/19 01:20:08;;;;;;;2.85;1.77;;;;;;;18.15;75.83;100299.84;4897981;29;20076;-78
2021/08/19 01:22:36;;;;;;;2.13;1.70;;;;;;;18.16;76.15;100298.88;4899480;29;20389;-79
2021/08/19 01:25:03;;;;;;;1.70;1.60;;;;;;;18.17;76.29;100316.66;4904838;29;20044;-79
2021/08/19 01:27:30;;;;;;;1.88;1.60;;;;;;;18.19;75.64;100314.72;4898422;29;20049;-79
2021/08/19 01:29:57;;;;;;;2.53;1.90;;;;;;;18.20;75.73;100311.06;4903432;29;20049;-79
2021/08/19 01:32:23;;;;;;;1.70;1.60;;;;;;;18.06;75.85;100291.69;4899309;29;20104;-79
2021/08/19 01:34:52;;;;;;;2.17;1.98;;;;;;;18.12;76.37;100313.47;4901541;29;20067;-79
2021/08/19 01:37:19;;;;;;;2.40;1.60;;;;;;;18.11;76.53;100317.13;4905922;29;20052;-79
2021/08/19 01:39:46;;;;;;;1.65;1.55;;;;;;;18.11;76.32;100319.81;4899664;29;20055;-77
2021/08/19 01:42:12;;;;;;;4.07;2.38;;;;;;;18.11;76.46;100314.44;4905648;29;20072;-78
2021/08/19 01:44:40;;;;;;;1.80;1.67;;;;;;;18.12;76.36;100312.63;4899922;29;20224;-79
2021/08/19 01:47:09;;;;;;;2.78;1.90;;;;;;;18.13;76.67;100317.00;4899859;29;20052;-78
2021/08/19 01:49:36;;;;;;;2.55;1.60;;;;;;;18.15;76.55;100312.38;4909959;29;20055;-78
2021/08/19 01:52:04;;;;;;;2.28;2.00;;;;;;;18.15;76.56;100307.88;4901366;29;20051;-78
2021/08/19 01:54:31;;;;;;;3.10;1.90;;;;;;;18.10;76.47;100302.03;4897540;29;20104;-78
2021/08/19 01:56:58;;;;;;;3.17;2.08;;;;;;;18.10;76.69;100301.19;4898215;29;20044;-78
2021/08/19 01:59:26;;;;;;;2.17;1.83;;;;;;;18.07;76.71;100296.94;4904171;29;20044;-78
2021/08/19 02:01:54;;;;;;;2.47;2.10;;;;;;;18.06;76.90;100297.06;4900015;29;20527;-78
2021/08/19 02:04:21;;;;;;;2.45;2.05;;;;;;;18.06;77.05;100299.72;4899276;29;20045;-78
2021/08/19 02:06:47;;;;;;;3.40;2.20;;;;;;;18.07;77.22;100293.41;4902891;29;20400;-78
2021/08/19 02:09:16;;;;;;;2.90;1.80;;;;;;;18.09;76.96;100302.19;4907203;29;20040;-78
2021/08/19 02:11:44;;;;;;;2.85;1.90;;;;;;;18.04;77.27;100304.34;4903744;29;20055;-78
2021/08/19 02:14:11;;;;;;;2.42;2.00;;;;;;;18.01;77.58;100296.56;4903242;29;20051;-78
2021/08/19 02:16:38;;;;;;;4.10;2.22;;;;;;;17.98;77.47;100291.44;4906374;29;20048;-78
2021/08/19 02:19:04;;;;;;;2.17;1.98;;;;;;;18.00;77.53;100303.75;4901920;29;20051;-78
2021/08/19 02:21:31;;;;;;;3.00;2.28;;;;;;;17.96;77.61;100296.91;4898279;29;20045;-78
2021/08/19 02:23:58;;;;;;;2.70;2.10;;;;;;;17.94;77.79;100290.00;4897134;29;20060;-78
2021/08/19 02:26:24;;;;;;;2.72;2.08;;;;;;;17.97;77.69;100297.75;4904800;29;20041;-78
2021/08/19 02:28:51;;;;;;;2.83;2.30;;;;;;;17.98;77.72;100300.31;4908309;29;20541;-78
2021/08/19 02:31:18;;;;;;;3.05;1.95;;;;;;;17.97;78.02;100292.41;4903575;29;20144;-78
2021/08/19 02:33:44;;;;;;;4.38;2.08;;;;;;;17.98;77.68;100289.59;4887501;29;20052;-78
2021/08/19 02:36:11;;;;;;;2.72;2.20;;;;;;;17.98;77.87;100300.31;4918173;29;20028;-78
2021/08/19 02:38:38;;;;;;;3.08;1.95;;;;;;;17.98;77.89;100292.28;4919136;29;20124;-78
2021/08/19 02:41:04;;;;;;;2.45;2.25;;;;;;;17.98;77.87;100297.66;4909398;29;20044;-78
2021/08/19 02:43:38;;;;;;;3.80;2.58;;;;;;;17.99;77.94;100295.81;4910816;29;20048;-78
2021/08/19 02:46:05;;;;;;;2.20;1.95;;;;;;;17.98;77.93;100288.75;4907568;29;20047;-78
2021/08/19 02:48:31;;;;;;;2.90;2.40;;;;;;;17.94;78.05;100290.84;4908254;29;20053;-78
2021/08/19 02:50:58;;;;;;;3.47;2.40;;;;;;;17.97;78.07;100292.41;4904375;29;20079;-78
2021/08/19 02:53:24;;;;;;;3.05;2.50;;;;;;;17.88;78.19;100284.13;4904885;29;20055;-78
2021/08/19 02:55:52;;;;;;;4.05;2.40;;;;;;;17.92;78.01;100290.13;4914744;29;20756;-78
2021/08/19 02:58:19;;;;;;;2.50;2.30;;;;;;;17.95;77.71;100294.34;4903322;29;20059;-78
2021/08/19 03:00:45;;;;;;;2.80;2.45;;;;;;;17.92;77.67;100290.13;4913509;29;20032;-78
2021/08/19 03:03:12;;;;;;;3.42;2.50;;;;;;;17.91;77.69;100283.06;4910029;29;20066;-78
2021/08/19 03:05:39;;;;;;;2.75;2.25;;;;;;;17.87;77.92;100286.94;4909169;29;20055;-78
2021/08/19 03:08:05;;;;;;;3.78;2.35;;;;;;;17.87;78.48;100301.19;4899993;29;20823;-78
2021/08/19 03:10:32;;;;;;;4.03;2.70;;;;;;;17.91;77.94;100298.28;4909775;29;20143;-78
2021/08/19 03:12:59;;;;;;;4.15;2.30;;;;;;;17.86;78.06;100295.94;4913041;29;20053;-78
2021/08/19 03:15:25;;;;;;;2.42;2.17;;;;;;;17.84;78.81;100296.06;4909937;29;20052;-78
2021/08/19 03:17:52;;;;;;;3.95;2.67;;;;;;;17.85;78.60;100302.28;4911335;29;20120;-78
2021/08/19 03:20:18;;;;;;;4.25;2.17;;;;;;;17.82;78.67;100305.19;4906759;29;20055;-78
2021/08/19 03:22:46;;;;;;;2.92;2.30;;;;;;;17.79;78.57;100295.56;4904990;29;20061;-78
2021/08/19 03:25:14;;;;;;;2.63;2.15;;;;;;;17.75;78.89;100291.44;4899229;29;20419;-78
2021/08/19 03:27:40;;;;;;;2.47;1.92;;;;;;;17.75;78.85;100296.78;4882178;29;20062;-78
2021/08/19 03:30:07;;;;;;;2.55;1.80;;;;;;;17.73;78.77;100293.38;4900442;29;20047;-78
2021/08/19 03:32:35;;;;;;;2.53;1.98;;;;;;;17.72;79.39;100294.34;4909769;29;20599;-78
2021/08/19 03:35:02;;;;;;;2.03;1.40;;;;;;;17.72;78.92;100291.69;4902367;29;20048;-78
2021/08/19 03:37:29;;;;;;;2.55;1.50;;;;;;;17.73;79.00;100289.84;4896146;29;20400;-78
2021/08/19 03:39:56;;;;;;;1.80;1.42;;;;;;;17.69;79.52;100289.22;4896013;29;20087;-78
2021/08/19 03:42:23;;;;;;;2.03;1.60;;;;;;;17.69;79.66;100291.91;4896513;29;20397;-78
2021/08/19 03:44:49;;;;;;;2.05;1.52;;;;;;;17.69;79.75;100288.38;4897660;29;20053;-78
2021/08/19 03:47:17;;;;;;;3.10;1.58;;;;;;;17.69;80.02;100294.59;4900304;29;20047;-78
2021/08/19 03:49:44;;;;;;;3.22;2.20;;;;;;;17.62;80.57;100289.81;4894052;29;20063;-78
2021/08/19 03:52:11;;;;;;;3.05;2.03;;;;;;;17.65;80.95;100292.25;4902853;29;20045;-78
2021/08/19 03:54:38;;;;;;;2.05;1.70;;;;;;;17.62;81.11;100298.69;4897431;29;20096;-78
2021/08/19 03:57:07;;;;;;;2.65;1.95;;;;;;;17.59;81.08;100301.59;4895342;29;20405;-78
2021/08/19 03:59:34;;;;;;;2.33;1.90;;;;;;;17.56;81.34;100304.50;4896411;29;20048;-78
2021/08/19 04:02:00;;;;;;;2.80;2.30;;;;;;;17.52;82.04;100303.03;4897007;29;20146;-78
2021/08/19 04:04:27;;;;;;;3.33;2.20;;;;;;;17.49;82.52;100305.94;4893404;29;20045;-78
2021/08/19 04:06:54;;;;;;;2.80;2.13;;;;;;;17.47;82.54;100299.88;4895366;29;20055;-78
2021/08/19 04:09:21;;;;;;;5.03;2.63;;;;;;;17.48;82.69;100301.56;4899555;29;20333;-79
2021/08/19 04:11:47;;;;;;;3.47;2.50;;;;;;;17.48;83.07;100306.91;4905094;29;20059;-80
2021/08/19 04:14:13;;;;;;;3.95;2.83;;;;;;;17.45;83.19;100299.16;4902595;29;20045;-79
2021/08/19 04:16:41;;;;;;;3.80;2.50;;;;;;;17.44;83.63;100300.13;4902664;29;20049;-79
2021/08/19 04:19:08;;;;;;;4.00;3.30;;;;;;;17.43;83.72;100301.09;4898146;29;20045;-77
2021/08/19 04:21:36;;;;;;;6.30;3.05;;;;;;;17.42;83.70;100288.66;4899609;29;20053;-78
2021/08/19 04:24:04;;;;;;;4.68;2.83;;;;;;;17.40;84.23;100293.28;4899671;29;20049;-79
2021/08/19 04:26:30;;;;;;;4.90;3.20;;;;;;;17.34;84.37;100291.91;4877625;29;20080;-78
2021/08/19 04:28:57;;;;;;;4.05;2.80;;;;;;;17.36;84.65;100303.38;4893628;29;20048;-78
2021/08/19 04:31:26;;;;;;;5.32;3.10;;;;;;;17.32;84.69;100285.81;4893631;29;20076;-77
2021/08/19 04:33:52;;;;;;;5.03;3.17;;;;;;;17.36;84.88;100297.16;4890150;29;20441;-77
2021/08/19 04:36:20;;;;;;;5.95;3.42;;;;;;;17.35;85.05;100295.44;4882921;29;20055;-77
2021/08/19 04:38:46;;;;;;;5.47;3.70;;;;;;;17.33;85.41;100292.88;4897481;29;20055;-77
2021/08/19 04:41:13;;;;;;;4.72;3.17;;;;;;;17.32;85.82;100301.03;4896968;29;20051;-77
2021/08/19 04:43:40;;;;;;;4.57;3.42;;;;;;;17.31;85.41;100294.84;4908363;29;20054;-78
2021/08/19 04:46:06;;;;;;;4.00;3.35;;;;;;;17.30;85.48;100298.50;4880480;29;20043;-77
2021/08/19 04:48:34;;;;;;;4.00;3.35;;;;;;;17.34;85.48;100293.75;4892770;29;20075;-79
2021/08/19 04:51:01;;;;;;;4.60;3.53;;;;;;;17.33;85.69;100292.88;4900370;29;20048;-77
2021/08/19 04:53:27;;;;;;;5.28;3.78;;;;;;;17.33;85.80;100298.25;4894909;29;20052;-78
2021/08/19 04:55:54;;;;;;;4.07;3.55;;;;;;;17.30;86.15;100295.81;4897775;29;20064;-80
2021/08/19 04:58:21;;;;;;;8.57;3.55;;;;;;;17.32;86.37;100299.22;4903830;29;20075;-79
2021/08/19 05:00:47;;;;;;;7.00;3.58;;;;;;;17.33;86.16;100303.59;4909199;29;20463;-79
2021/08/19 05:03:28;;;;;;;;;;;;;;;17.37;85.94;100314.94;4916397;29;20049;-79
2021/08/19 05:05:54;;;;;;;5.65;3.72;;;;;;;17.37;86.21;100304.22;4911663;29;19929;-79
2021/08/19 05:08:22;;;;;;;4.97;3.53;;;;;;;17.37;86.51;100306.91;4917483;29;20053;-79
2021/08/19 05:10:48;;;;;;;5.40;4.20;;;;;;;17.37;86.80;100310.44;4917629;29;20041;-79
2021/08/19 05:13:15;;;;;;;5.47;3.80;;;;;;;17.34;86.81;100310.66;4923708;29;20103;-79
2021/08/19 05:15:41;;;;;;;5.22;3.88;;;;;;;17.31;87.05;100307.38;4914970;29;20103;-77
2021/08/19 05:18:08;;;;;;;4.22;3.70;;;;;;;17.36;87.08;100318.56;4904873;29;20040;-83
2021/08/19 05:20:34;;;;;;;5.45;4.10;;;;;;;17.36;87.22;100315.88;4906478;29;20607;-83
2021/08/19 05:23:01;;;;;;;4.97;3.80;;;;;;;17.37;87.30;100313.09;4908138;29;20391;-82
2021/08/19 05:25:28;;;;;;;5.07;3.50;;;;;;;17.39;87.28;100311.16;4889335;29;20051;-85
2021/08/19 05:27:54;;;;;;;7.53;3.75;;;;;;;17.42;87.13;100310.94;4885736;29;20044;-83
2021/08/19 05:30:21;;;;;;;6.20;4.15;;;;;;;17.45;87.09;100315.22;4900518;29;20047;-85
2021/08/19 05:32:48;;;;;;;4.13;3.55;;;;;;;17.46;87.43;100320.44;4894766;29;20127;-84
2021/08/19 05:35:15;;;;;;;3.92;3.40;;;;;;;17.47;87.03;100315.94;4908296;29;20047;-83
2021/08/19 05:37:42;;;;;;;4.90;3.80;;;;;;;17.49;86.90;100313.97;4917273;29;20116;-84
2021/08/19 05:40:09;;;;;;;6.15;3.72;;;;;;;17.48;86.82;100309.59;4911204;29;20053;-84
2021/08/19 05:42:39;;;;;;;5.93;3.90;;;;;;;17.53;86.71;100307.44;4909096;29;20052;-83
2021/08/19 05:45:06;;;;;;;5.50;3.75;;;;;;;17.52;87.13;100311.06;4897853;29;20032;-84
2021/08/19 05:47:34;;;;;;;4.82;3.80;;;;;;;17.53;86.67;100310.09;4901905;29;20062;-84
2021/08/19 05:50:09;;;;;;;5.38;3.92;;;;;;;17.54;86.36;100311.81;4902260;29;20055;-84
2021/08/19 05:52:38;;;;;;;7.32;4.10;;;;;;;17.54;86.65;100307.31;4901614;29;20052;-85
2021/08/19 05:55:06;;;;;;;4.60;3.95;;;;;;;17.54;86.42;100314.50;4901383;29;20043;-84
2021/08/19 05:57:32;;;;;;;3.83;3.42;;;;;;;17.50;86.35;100304.97;4899401;29;20052;-86
2021/08/19 05:59:59;;;;;;;5.28;3.95;;;;;;;17.58;86.47;100313.28;4902151;29;20056;-86
2021/08/19 06:02:29;;;;;;;5.95;4.05;;;;;;;17.59;86.40;100315.00;4903830;29;20060;-86
2021/08/19 06:04:59;;;;;;;4.28;3.85;;;;;;;17.62;86.54;100322.78;4909128;29;20144;-85
2021/08/19 06:07:26;;;;;;;5.82;3.95;;;;;;;17.61;86.28;100313.06;4894516;29;20067;-86
2021/08/19 06:09:52;;;;;;;7.43;4.05;;;;;;;17.67;86.48;100323.31;4886437;29;20729;-85
2021/08/19 06:12:19;;;;;;;7.55;3.70;;;;;;;17.68;85.72;100325.00;4891295;29;20064;-86
2021/08/19 06:14:46;;;;;;;4.85;3.83;;;;;;;17.69;86.26;100328.53;4902047;29;20124;-86
2021/08/19 06:17:14;;;;;;;7.65;3.60;;;;;;;17.71;85.87;100331.97;4908162;29;20041;-87
2021/08/19 06:19:44;;;;;;;5.28;3.78;;;;;;;17.73;85.70;100333.56;4900697;29;20052;-86
2021/08/19 06:22:15;;;;;;;4.53;3.53;;;;;;;17.74;85.67;100332.59;4903783;29;20054;-84
2021/08/19 06:24:42;;;;;;;6.15;3.95;;;;;;;17.76;85.60;100338.69;4891223;29;20048;-86
2021/08/19 06:31:01;;;;;;;5.78;3.92;;;;;;;17.83;85.21;100333.69;4905174;29;20072;-87
2021/08/19 06:33:52;;;;;;;4.97;3.90;;;;;;;17.83;84.51;100334.53;4896408;29;20054;-85
2021/08/19 06:36:20;;;;;;;6.55;3.80;;;;;;;17.88;84.75;100345.75;4907694;29;20041;-84
2021/08/19 06:38:52;;;;;;;5.38;4.10;;;;;;;17.91;84.82;100333.94;4911936;29;20049;-84
2021/08/19 06:41:21;;;;;;;5.47;4.47;;;;;;;18.07;84.12;100347.00;4913271;29;20040;-85
2021/08/19 06:43:48;;;;;;;9.35;5.28;;;;;;;18.16;84.35;100338.22;4919742;29;20048;-83
2021/08/19 06:46:16;;;;;;;5.35;3.95;;;;;;;18.35;83.39;100338.47;4919631;29;20033;-87
2021/08/19 06:48:44;;;;;;;4.55;3.70;;;;;;;18.46;82.37;100338.44;4931444;29;20044;-86
2021/08/19 06:51:12;;;;;;;6.30;4.10;;;;;;;18.54;81.82;100335.16;4919796;29;20040;-89
2021/08/19 06:53:40;;;;;;;3.88;3.22;;;;;;;18.67;80.98;100330.53;4921823;29;20100;-85
2021/08/19 06:56:20;;;;;;;4.90;3.40;;;;;;;18.76;80.25;100332.44;4920217;29;20033;-85
2021/08/19 06:59:11;;;;;;;5.82;3.20;;;;;;;18.88;80.01;100331.47;4920759;29;20057;-85
2021/08/19 07:05:23;;;;;;;3.58;2.70;;;;;;;19.13;77.76;100326.72;4898755;29;20044;-87
2021/08/19 07:07:57;;;;;;;4.60;3.35;;;;;;;19.20;77.07;100327.94;4899563;29;20044;-87
2021/08/19 07:10:25;;;;;;;8.05;3.55;;;;;;;19.30;77.25;100323.47;4884430;29;20051;-86
2021/08/19 07:12:51;;;;;;;5.43;3.10;;;;;;;19.32;77.42;100326.91;4885096;29;20052;-88
2021/08/19 07:15:20;;;;;;;4.40;2.80;;;;;;;19.33;76.36;100322.38;4909688;29;20041;-87
2021/08/19 07:17:48;;;;;;;5.28;3.50;;;;;;;19.39;76.34;100328.06;4894828;29;20124;-86
2021/08/19 07:20:15;;;;;;;2.80;2.53;;;;;;;19.51;75.86;100323.53;4887258;29;20052;-87
2021/08/19 07:22:45;;;;;;;3.50;2.65;;;;;;;19.61;74.92;100325.28;4912544;29;20132;-88
2021/08/19 07:25:13;;;;;;;3.22;2.25;;;;;;;19.80;74.62;100321.03;4874137;29;20045;-86
2021/08/19 07:27:56;;;;;;;3.55;2.67;;;;;;;19.87;73.38;100327.56;4907261;29;20040;-87
2021/08/19 07:30:23;;;;;;;3.08;2.70;;;;;;;19.98;73.82;100332.03;4907514;29;20060;-87
2021/08/19 07:32:50;;;;;;;3.45;2.38;;;;;;;20.07;73.45;100329.38;4906371;29;20146;-86
2021/08/19 07:35:24;;;;;;;3.20;2.75;;;;;;;20.19;72.41;100322.06;4908911;29;20049;-87
2021/08/19 07:37:54;;;;;;;5.47;2.45;;;;;;;20.27;71.68;100323.09;4906785;29;20102;-87
2021/08/19 07:40:25;;;;;;;2.83;2.08;;;;;;;20.35;70.49;100332.31;4912031;29;20131;-88
2021/08/19 07:42:54;;;;;;;2.75;2.50;;;;;;;20.30;71.26;100314.75;4909683;29;20093;-85
2021/08/19 07:45:25;;;;;;;4.00;2.17;;;;;;;20.45;70.78;100323.34;4923006;29;20049;-85
2021/08/19 07:47:54;;;;;;;2.58;2.13;;;;;;;20.59;70.23;100314.03;4922611;29;20068;-84
2021/08/19 07:50:21;;;;;;;3.70;2.40;;;;;;;20.57;69.36;100308.78;4923455;29;20032;-84
2021/08/19 07:52:52;;;;;;;3.55;2.60;;;;;;;20.55;69.54;100318.84;4916232;29;20052;-86
2021/08/19 07:55:22;;;;;;;3.22;2.40;;;;;;;20.51;69.98;100324.63;4928788;29;20053;-86
2021/08/19 07:57:52;;;;;;;3.40;2.00;;;;;;;20.64;69.57;100328.75;4903396;29;20095;-85
2021/08/19 08:00:28;;;;;;;3.80;2.03;;;;;;;20.74;68.62;100325.25;4918306;29;20071;-86
2021/08/19 08:02:56;;;;;;;3.25;2.28;;;;;;;20.83;68.64;100324.41;4892223;29;20053;-87
2021/08/19 08:05:33;;;;;;;2.45;2.10;;;;;;;20.94;67.53;100337.72;4918314;29;20076;-85
2021/08/19 08:08:04;;;;;;;2.92;1.92;;;;;;;21.00;67.36;100335.34;4925008;29;20056;-87
2021/08/19 08:10:31;;;;;;;4.28;1.90;;;;;;;21.09;66.55;100330.97;4914771;29;20043;-85
2021/08/19 08:12:59;;;;;;;5.22;2.53;;;;;;;21.14;66.41;100331.38;4933371;29;20104;-85
2021/08/19 08:15:27;;;;;;;2.35;1.98;;;;;;;21.30;66.63;100336.22;4918579;29;20112;-86
2021/08/19 08:17:56;;;;;;;4.53;1.92;;;;;;;21.47;65.11;100338.22;4911957;29;20128;-88
2021/08/19 08:20:22;;;;;;;4.50;2.10;;;;;;;21.52;65.04;100341.34;4912020;29;20128;-86
2021/08/19 08:22:51;;;;;;;2.38;2.00;;;;;;;21.56;64.62;100336.53;4908257;29;20096;-88
2021/08/19 08:25:19;;;;;;;2.40;1.92;;;;;;;21.56;64.25;100342.75;4887762;29;20040;-88
2021/08/19 08:28:20;;;;;;;2.40;1.98;;;;;;;21.49;65.19;100351.53;4900514;29;20051;-89
2021/08/19 08:30:51;;;;;;;3.40;1.95;;;;;;;21.62;64.87;100344.00;4892708;29;20061;-87
2021/08/19 08:33:33;;;;;;;2.50;1.90;;;;;;;21.79;65.23;100359.44;4884742;29;20055;-88
2021/08/19 08:36:03;;;;;;;2.50;1.70;;;;;;;21.84;64.09;100354.47;4901106;29;20108;-87
2021/08/19 08:38:47;;;;;;;5.35;1.77;;;;;;;21.66;64.24;100354.38;4900403;29;20143;-87
2021/08/19 08:41:19;;;;;;;1.85;1.67;;;;;;;21.47;65.28;100362.47;4915149;29;20040;-87
2021/08/19 08:43:52;;;;;;;2.55;1.75;;;;;;;21.37;65.58;100360.78;4928762;29;20036;-88
2021/08/19 08:46:26;;;;;;;3.22;1.98;;;;;;;21.39;65.84;100361.47;4885716;29;20068;-88
2021/08/19 08:49:09;;;;;;;2.30;1.85;;;;;;;21.34;66.05;100362.75;4908492;29;20338;-87
2021/08/19 08:51:46;;;;;;;3.05;2.20;;;;;;;21.27;66.31;100353.53;4914266;29;20143;-88
2021/08/19 08:54:21;;;;;;;2.53;2.10;;;;;;;21.24;66.41;100359.22;4914208;29;20049;-89
2021/08/19 08:56:51;;;;;;;2.97;1.88;;;;;;;21.30;66.71;100355.94;4905445;29;20563;-88
2021/08/19 08:59:32;;;;;;;2.55;1.95;;;;;;;21.38;65.89;100359.78;4887640;29;20060;-89
2021/08/19 09:02:33;;;;;;;2.65;2.00;;;;;;;21.48;66.07;100352.53;4905533;29;20400;-88
2021/08/19 09:05:24;;;;;;;2.10;1.90;;;;;;;21.59;65.49;100347.00;4867484;29;20045;-90
2021/08/19 09:08:12;;;;;;;2.25;2.05;;;;;;;21.60;65.40;100351.38;4895572;29;20059;-88
2021/08/19 09:10:39;;;;;;;3.05;2.10;;;;;;;21.64;65.65;100353.66;4897900;29;20079;-90
2021/08/19 09:13:29;;;;;;;4.32;2.38;;;;;;;21.66;65.37;100356.22;4898600;29;20049;-89
2021/08/19 09:16:17;;;;;;;2.33;2.13;;;;;;;21.73;65.41;100360.00;4909135;29;20500;-87
2021/08/19 09:18:44;;;;;;;2.45;2.20;;;;;;;21.74;65.00;100350.09;4891263;29;20128;-89
2021/08/19 09:21:22;;;;;;;3.17;2.20;;;;;;;21.86;64.59;100359.72;4909536;29;20087;-89
2021/08/19 09:24:29;;;;;;;2.95;1.83;;;;;;;21.91;65.18;100349.34;4918638;29;20048;-89
2021/08/19 09:27:09;;;;;;;2.38;2.08;;;;;;;21.95;64.22;100343.53;4863907;29;20052;-88
2021/08/19 09:30:03;;;;;;;2.63;1.73;;;;;;;22.05;64.54;100338.13;4902992;29;20047;-89
2021/08/19 09:32:42;;;;;;;2.63;2.20;;;;;;;22.23;63.89;100354.38;4884050;29;20056;-88
2021/08/19 09:35:16;;;;;;;2.30;2.10;;;;;;;22.30;63.48;100342.88;4903378;29;20059;-87
2021/08/19 09:37:56;;;;;;;3.00;2.45;;;;;;;22.36;62.92;100342.25;4894008;29;20131;-88
2021/08/19 09:40:28;;;;;;;6.38;2.70;;;;;;;22.34;62.93;100341.59;4894664;29;20052;-88
2021/08/19 09:42:56;;;;;;;2.50;2.30;;;;;;;22.22;63.16;100339.19;4895232;29;20413;-89
2021/08/19 09:45:24;;;;;;;2.28;2.08;;;;;;;22.27;62.07;100358.50;4896111;29;20032;-88
2021/08/19 09:48:10;;;;;;;3.45;2.20;;;;;;;22.22;62.99;100348.13;4878861;29;20499;-88
2021/08/19 09:50:37;;;;;;;2.33;2.13;;;;;;;22.22;62.21;100348.13;4898144;29;20055;-87
2021/08/19 09:53:24;;;;;;;2.80;1.98;;;;;;;22.24;61.96;100342.59;4896342;29;20040;-89
2021/08/19 09:55:52;;;;;;;2.33;1.98;;;;;;;22.38;62.46;100340.25;4881909;29;20055;-86
2021/08/19 09:58:32;;;;;;;4.35;1.98;;;;;;;22.48;61.77;100342.94;4900073;29;20044;-89
2021/08/19 10:01:11;;;;;;;2.78;2.13;;;;;;;22.65;61.12;100344.00;4897756;29;20135;-86
2021/08/19 10:03:38;;;;;;;2.15;1.70;;;;;;;22.75;59.92;100342.06;4895858;29;20055;-89
2021/08/19 10:06:06;;;;;;;2.28;1.90;;;;;;;22.83;60.09;100327.81;4899919;29;20074;-86
2021/08/19 10:08:34;;;;;;;3.63;2.30;;;;;;;22.88;60.71;100325.53;4903310;29;20051;-87
2021/08/19 10:11:03;;;;;;;4.72;3.70;;;;;;;22.82;60.23;100331.56;4899624;29;20130;-86
2021/08/19 10:13:31;;;;;;;4.32;3.38;;;;;;;22.76;60.08;100319.47;4897556;29;20128;-87
2021/08/19 10:16:02;;;;;;;4.57;3.00;;;;;;;22.87;60.31;100321.13;4901499;29;20068;-85
2021/08/19 10:18:33;;;;;;;2.75;1.70;;;;;;;23.10;58.41;100330.50;4874799;29;20055;-86
2021/08/19 10:21:09;;;;;;;2.45;1.67;;;;;;;23.31;58.27;100322.91;4906331;29;20056;-87
2021/08/19 10:23:57;;;;;;;2.03;1.60;;;;;;;23.35;56.13;100318.91;4897838;29;20601;-88
2021/08/19 10:26:23;;;;;;;3.63;1.27;;;;;;;23.38;56.46;100329.41;4901683;29;20051;-87
2021/08/19 10:28:53;;;;;;;2.40;1.70;;;;;;;23.34;56.18;100316.34;4900566;29;20048;-86
2021/08/19 10:31:34;;;;;;;3.83;2.22;;;;;;;23.39;55.85;100314.88;4886827;29;20053;-87
2021/08/19 10:34:02;;;;;;;2.40;2.20;;;;;;;23.37;56.25;100321.44;4899422;29;20068;-86
2021/08/19 10:36:28;;;;;;;3.75;2.17;;;;;;;23.25;57.20;100318.16;4903071;29;20064;-86
2021/08/19 10:39:23;;;;;;;2.83;2.17;;;;;;;23.17;57.76;100326.16;4901449;29;20048;-86
2021/08/19 10:41:52;;;;;;;6.22;3.20;;;;;;;23.09;58.88;100307.19;4898734;29;20075;-89
2021/08/19 10:44:44;;;;;;;2.83;2.50;;;;;;;23.15;58.73;100316.50;4901465;29;20565;-86
2021/08/19 10:47:32;;;;;;;3.83;2.67;;;;;;;23.24;56.93;100313.75;4905174;29;20051;-86
2021/08/19 10:50:22;;;;;;;3.40;2.50;;;;;;;23.33;57.56;100304.69;4903975;29;20059;-85
2021/08/19 10:52:49;;;;;;;;;;;;;;;23.50;57.24;100304.81;4912938;29;20132;-86
2021/08/19 10:55:19;;;;;;;2.60;2.40;;;;;;;23.57;56.77;100306.78;4911545;29;19923;-88
2021/08/19 10:57:53;;;;;;;2.70;2.50;;;;;;;23.62;56.48;100295.47;4910055;29;20056;-86
2021/08/19 11:00:38;;;;;;;4.88;3.20;;;;;;;23.56;56.89;100305.09;4899423;29;20041;-88
2021/08/19 11:03:06;;;;;;;6.38;3.70;;;;;;;23.47;56.82;100299.72;4921065;29;20044;-90
2021/08/19 11:05:52;;;;;;;4.68;4.00;;;;;;;23.48;56.83;100290.63;4915914;29;20051;-88
2021/08/19 11:08:36;;;;;;;6.95;3.55;;;;;;;23.49;57.17;100308.53;4891561;29;20052;-88
2021/08/19 11:11:06;;;;;;;4.63;4.03;;;;;;;23.48;56.71;100306.84;4912344;29;20463;-85
2021/08/19 11:13:35;;;;;;;4.15;2.67;;;;;;;23.51;56.66;100299.28;4890373;29;20112;-86
2021/08/19 11:16:22;;;;;;;3.97;3.20;;;;;;;23.34;56.85;100298.28;4906622;29;20048;-87
2021/08/19 11:18:51;;;;;;;4.55;3.30;;;;;;;23.23;57.85;100303.09;4898533;29;20484;-84
2021/08/19 11:21:20;;;;;;;4.40;3.72;;;;;;;23.08;58.11;100300.94;4904229;29;20041;-88
2021/08/19 11:23:48;;;;;;;5.32;4.05;;;;;;;22.95;58.60;100305.03;4921492;29;20051;-83
2021/08/19 11:26:20;;;;;;;4.35;3.95;;;;;;;22.85;58.83;100301.53;4930775;29;20048;-87
2021/08/19 11:28:49;;;;;;;7.32;4.00;;;;;;;22.79;59.87;100294.91;4903958;29;20128;-88
2021/08/19 11:31:24;;;;;;;4.97;4.00;;;;;;;22.88;59.92;100310.19;4921532;29;20128;-86
2021/08/19 11:34:18;;;;;;;4.53;3.92;;;;;;;23.03;59.69;100307.78;4918537;29;20109;-87
2021/08/19 11:36:50;;;;;;;4.93;4.43;;;;;;;23.20;59.45;100304.25;4899059;29;20047;-87
2021/08/19 11:39:25;;;;;;;8.75;5.38;;;;;;;23.33;58.94;100302.00;4901508;29;20048;-89
2021/08/19 11:42:05;;;;;;;5.15;3.75;;;;;;;23.41;57.79;100302.06;4886162;29;20036;-86
2021/08/19 11:44:34;;;;;;;6.10;3.95;;;;;;;23.48;57.47;100301.44;4897117;29;20072;-86
2021/08/19 11:47:10;;;;;;;5.05;4.13;;;;;;;23.49;57.60;100286.91;4903590;29;20062;-87
2021/08/19 11:49:37;;;;;;;4.70;3.58;;;;;;;23.59;57.15;100293.97;4903478;29;20076;-87